Time;durP1;ratioP1;P1;durP2;ratioP2;P2;SDS_P1;SDS_P2;PMS_P1;PMS_P2;Temp;Humidity;BMP_temperature;BMP_pressure;BME280_temperature;BME280_humidity;BME280_pressure;Samples;Min_cycle;Max_cycle;Signal;HPM_P1;HPM_P2
2023/12/18 00:02:10;;;;;;;;;;;;;;;;;;5049761;28;20042;-78
2023/12/18 00:04:36;;;;;;;;;;;;;;;;;;5051927;28;20292;-78
2023/12/18 00:07:02;;;;;;;;;;;;;;;;;;5052068;28;19959;-78
2023/12/18 00:09:28;;;;;;;;;;;;;;;;;;5050849;28;19964;-79
2023/12/18 00:11:54;;;;;;;;;;;;;;;;;;5052073;28;19928;-80
2023/12/18 00:14:19;;;;;;;;;;;;;;;;;;5048762;28;19952;-79
2023/12/18 00:16:45;;;;;;;;;;;;;;;;;;5045657;28;19913;-80
2023/12/18 00:19:11;;;;;;;;;;;;;;;;;;5046787;28;19995;-79
2023/12/18 00:21:37;;;;;;;;;;;;;;;;;;5050797;28;19955;-78
2023/12/18 00:24:03;;;;;;;;;;;;;;;;;;5049929;28;20007;-78
2023/12/18 00:26:29;;;;;;;;;;;;;;;;;;5051431;28;19952;-78
2023/12/18 00:28:55;;;;;;;;;;;;;;;;;;5048741;28;20427;-78
2023/12/18 00:31:21;;;;;;;;;;;;;;;;;;5051200;28;19952;-78
2023/12/18 00:33:47;;;;;;;;;;;;;;;;;;5049561;28;20025;-77
2023/12/18 00:36:13;;;;;;;;;;;;;;;;;;5049837;28;19951;-77
2023/12/18 00:38:39;;;;;;;;;;;;;;;;;;5050143;28;19960;-77
2023/12/18 00:41:05;;;;;;;;;;;;;;;;;;5050879;28;19917;-78
2023/12/18 00:43:31;;;;;;;;;;;;;;;;;;5050641;28;19970;-78
2023/12/18 00:45:57;;;;;;;;;;;;;;;;;;5049314;28;19952;-77
2023/12/18 00:48:23;;;;;;;;;;;;;;;;;;5049460;28;19920;-77
2023/12/18 00:50:49;;;;;;;;;;;;;;;;;;5049783;28;21065;-77
2023/12/18 00:53:16;;;;;;;;;;;;;;;;;;5048123;28;20384;-78
2023/12/18 00:55:42;;;;;;;;;;;;;;;;;;5045043;28;19939;-78
2023/12/18 00:58:08;;;;;;;;;;;;;;;;;;5046922;28;19917;-78
2023/12/18 01:00:34;;;;;;;;;;;;;;;;;;5047779;28;20385;-78
2023/12/18 01:03:00;;;;;;;;;;;;;;;;;;5047435;28;19994;-78
2023/12/18 01:05:26;;;;;;;;;;;;;;;;;;5049780;28;20332;-78
2023/12/18 01:07:52;;;;;;;;;;;;;;;;;;5047716;28;20659;-78
2023/12/18 01:10:18;;;;;;;;;;;;;;;;;;5048669;28;19916;-78
2023/12/18 01:12:44;;;;;;;;;;;;;;;;;;5048221;28;20014;-78
2023/12/18 01:15:10;;;;;;;;;;;;;;;;;;5045474;28;20363;-78
2023/12/18 01:17:36;;;;;;;;;;;;;;;;;;5047081;28;20409;-78
2023/12/18 01:20:02;;;;;;;;;;;;;;;;;;5048489;28;19922;-78
2023/12/18 01:22:28;;;;;;;;;;;;;;;;;;5047792;28;19917;-78
2023/12/18 01:24:54;;;;;;;;;;;;;;;;;;5049878;28;19921;-78
2023/12/18 01:27:20;;;;;;;;;;;;;;;;;;5049465;28;20004;-78
2023/12/18 01:29:46;;;;;;;;;;;;;;;;;;5046898;28;20026;-78
2023/12/18 01:32:12;;;;;;;;;;;;;;;;;;5049387;28;20317;-78
2023/12/18 01:34:38;;;;;;;;;;;;;;;;;;5048879;28;20379;-78
2023/12/18 01:37:05;;;;;;;;;;;;;;;;;;5047949;28;20439;-78
2023/12/18 01:39:31;;;;;;;;;;;;;;;;;;5045603;28;19924;-78
2023/12/18 01:41:57;;;;;;;;;;;;;;;;;;5049781;28;20024;-78
2023/12/18 01:44:23;;;;;;;;;;;;;;;;;;5046996;28;20403;-78
2023/12/18 01:46:49;;;;;;;;;;;;;;;;;;5049863;28;20300;-78
2023/12/18 01:49:15;;;;;;;;;;;;;;;;;;5047114;28;20403;-78
2023/12/18 01:51:42;;;;;;;;;;;;;;;;;;5042777;28;19952;-78
2023/12/18 01:54:08;;;;;;;;;;;;;;;;;;5041878;28;20344;-78
2023/12/18 01:56:34;;;;;;;;;;;;;;;;;;5048778;28;19964;-78
2023/12/18 01:59:00;;;;;;;;;;;;;;;;;;5047664;28;19967;-78
2023/12/18 02:01:26;;;;;;;;;;;;;;;;;;5048066;28;20023;-76
2023/12/18 02:03:52;;;;;;;;;;;;;;;;;;5050056;28;19913;-75
2023/12/18 02:06:18;;;;;;;;;;;;;;;;;;5050115;28;20430;-76
2023/12/18 02:08:44;;;;;;;;;;;;;;;;;;5049897;28;19955;-76
2023/12/18 02:16:25;;;;;;;;;;;;;;;;;;5029513;28;20299;-59
2023/12/18 02:18:51;;;;;;;;;;;;;;;;;;5040070;28;19975;-59
2023/12/18 02:21:17;;;;;;;;;;;;;;;;;;5041525;28;19916;-59
2023/12/18 02:23:43;;;;;;;;;;;;;;;;;;5043159;28;19940;-54
2023/12/18 02:26:08;;;;;;;;;;;;;;;;;;5045692;28;20356;-55
2023/12/18 02:28:34;;;;;;;;;;;;;;;;;;5044399;28;20336;-53
2023/12/18 02:31:00;;;;;;;;;;;;;;;;;;5037791;28;20376;-54
2023/12/18 02:33:26;;;;;;;;;;;;;;;;;;5039567;28;20461;-54
2023/12/18 02:35:52;;;;;;;;;;;;;;;;;;5040105;28;19956;-53
2023/12/18 02:38:18;;;;;;;;;;;;;;;;;;5043704;28;19948;-53
2023/12/18 02:40:44;;;;;;;;;;;;;;;;;;5041143;28;19963;-53
2023/12/18 02:43:10;;;;;;;;;;;;;;;;;;5044343;28;20042;-55
2023/12/18 02:45:37;;;;;;;;;;;;;;;;;;5037011;28;19917;-55
2023/12/18 02:48:04;;;;;;;;;;;;;;;;;;5036550;28;19913;-53
2023/12/18 02:50:30;;;;;;;;;;;;;;;;;;5038196;28;20001;-54
2023/12/18 02:52:56;;;;;;;;;;;;;;;;;;5042395;28;20003;-53
2023/12/18 02:55:22;;;;;;;;;;;;;;;;;;5039105;28;20386;-54
2023/12/18 02:57:48;;;;;;;;;;;;;;;;;;5036871;28;19964;-53
2023/12/18 03:00:13;;;;;;;;;;;;;;;;;;5037364;28;20282;-53
2023/12/18 03:02:39;;;;;;;;;;;;;;;;;;5042783;28;19948;-54
2023/12/18 03:05:05;;;;;;;;;;;;;;;;;;5041689;28;20035;-55
2023/12/18 03:07:31;;;;;;;;;;;;;;;;;;5044510;28;19917;-53
2023/12/18 03:09:57;;;;;;;;;;;;;;;;;;5041396;28;20038;-57
2023/12/18 03:12:23;;;;;;;;;;;;;;;;;;5043816;28;19952;-57
2023/12/18 03:14:49;;;;;;;;;;;;;;;;;;5027291;28;19967;-57
2023/12/18 03:17:15;;;;;;;;;;;;;;;;;;5014248;28;20352;-57
2023/12/18 03:19:41;;;;;;;;;;;;;;;;;;5027886;28;19955;-57
2023/12/18 03:22:07;;;;;;;;;;;;;;;;;;5027672;28;19974;-57
2023/12/18 03:24:33;;;;;;;;;;;;;;;;;;5028731;28;19966;-57
2023/12/18 03:26:59;;;;;;;;;;;;;;;;;;5037391;28;20036;-57
2023/12/18 03:29:25;;;;;;;;;;;;;;;;;;5028425;28;19972;-57
2023/12/18 03:31:51;;;;;;;;;;;;;;;;;;5030812;28;19955;-57
2023/12/18 03:34:16;;;;;;;;;;;;;;;;;;5028376;28;20305;-57
2023/12/18 03:36:42;;;;;;;;;;;;;;;;;;5025275;28;20380;-57
2023/12/18 03:39:08;;;;;;;;;;;;;;;;;;5036015;28;19959;-57
2023/12/18 03:41:34;;;;;;;;;;;;;;;;;;5030127;28;19924;-57
2023/12/18 03:44:00;;;;;;;;;;;;;;;;;;5040571;28;20384;-56
2023/12/18 03:46:26;;;;;;;;;;;;;;;;;;5030361;28;19940;-57
2023/12/18 03:48:52;;;;;;;;;;;;;;;;;;5036472;28;19955;-57
2023/12/18 03:51:18;;;;;;;;;;;;;;;;;;5031357;28;20316;-57
2023/12/18 03:53:44;;;;;;;;;;;;;;;;;;5032174;28;19963;-57
2023/12/18 03:56:10;;;;;;;;;;;;;;;;;;5025435;28;19921;-57
2023/12/18 03:58:36;;;;;;;;;;;;;;;;;;5031341;28;20372;-57
2023/12/18 04:01:02;;;;;;;;;;;;;;;;;;5027814;28;19913;-57
2023/12/18 04:03:28;;;;;;;;;;;;;;;;;;5029703;28;19961;-57
2023/12/18 04:05:54;;;;;;;;;;;;;;;;;;5029557;28;20324;-56
2023/12/18 04:08:20;;;;;;;;;;;;;;;;;;5030945;28;19917;-57
2023/12/18 04:10:46;;;;;;;;;;;;;;;;;;5039327;28;20015;-57
2023/12/18 04:13:12;;;;;;;;;;;;;;;;;;5039451;28;19967;-57
2023/12/18 04:15:38;;;;;;;;;;;;;;;;;;5034687;28;20054;-57
2023/12/18 04:18:04;;;;;;;;;;;;;;;;;;5027049;28;19955;-57
2023/12/18 04:20:30;;;;;;;;;;;;;;;;;;5038310;28;19921;-57
2023/12/18 04:22:56;;;;;;;;;;;;;;;;;;5034002;28;19917;-57
2023/12/18 04:25:22;;;;;;;;;;;;;;;;;;5031889;28;19964;-58
2023/12/18 04:27:48;;;;;;;;;;;;;;;;;;5030253;28;20363;-57
2023/12/18 04:30:14;;;;;;;;;;;;;;;;;;5029925;28;20183;-55
2023/12/18 04:32:40;;;;;;;;;;;;;;;;;;5030705;28;20376;-56
2023/12/18 04:35:06;;;;;;;;;;;;;;;;;;5029885;28;19963;-56
2023/12/18 04:37:33;;;;;;;;;;;;;;;;;;5028764;28;19921;-56
2023/12/18 04:39:59;;;;;;;;;;;;;;;;;;5031137;28;20021;-56
2023/12/18 04:42:25;;;;;;;;;;;;;;;;;;5030082;28;20325;-57
2023/12/18 04:44:51;;;;;;;;;;;;;;;;;;5014461;28;20334;-56
2023/12/18 04:47:17;;;;;;;;;;;;;;;;;;5030211;28;19960;-56
2023/12/18 04:49:43;;;;;;;;;;;;;;;;;;5029234;28;19956;-56
2023/12/18 04:52:09;;;;;;;;;;;;;;;;;;5027787;28;19917;-56
2023/12/18 04:54:35;;;;;;;;;;;;;;;;;;5028727;28;19956;-56
2023/12/18 04:57:01;;;;;;;;;;;;;;;;;;5030515;28;19964;-56
2023/12/18 04:59:27;;;;;;;;;;;;;;;;;;5018280;28;19995;-56
2023/12/18 05:01:53;;;;;;;;;;;;;;;;;;5029900;28;19955;-56
2023/12/18 05:04:19;;;;;;;;;;;;;;;;;;5029174;28;19917;-56
2023/12/18 05:06:45;;;;;;;;;;;;;;;;;;5029819;28;20819;-56
2023/12/18 05:09:11;;;;;;;;;;;;;;;;;;5027030;28;20405;-56
2023/12/18 05:11:37;;;;;;;;;;;;;;;;;;5028725;28;19913;-56
2023/12/18 05:14:03;;;;;;;;;;;;;;;;;;5029502;28;19912;-56
2023/12/18 05:16:29;;;;;;;;;;;;;;;;;;5028601;28;20541;-56
2023/12/18 05:18:56;;;;;;;;;;;;;;;;;;5028701;28;20647;-56
2023/12/18 05:21:22;;;;;;;;;;;;;;;;;;5029363;28;19982;-56
2023/12/18 05:23:50;;;;;;;;;;;;;;;;;;5029276;28;20391;-56
2023/12/18 05:26:16;;;;;;;;;;;;;;;;;;5028934;28;19920;-56
2023/12/18 05:28:42;;;;;;;;;;;;;;;;;;5014603;28;19914;-56
2023/12/18 05:31:08;;;;;;;;;;;;;;;;;;5027279;28;20002;-59
2023/12/18 05:33:34;;;;;;;;;;;;;;;;;;5029748;28;19948;-59
2023/12/18 05:36:00;;;;;;;;;;;;;;;;;;5028265;28;19975;-58
2023/12/18 05:38:26;;;;;;;;;;;;;;;;;;5028231;28;19960;-58
2023/12/18 05:40:52;;;;;;;;;;;;;;;;;;5029273;28;20010;-59
2023/12/18 05:43:18;;;;;;;;;;;;;;;;;;5028104;28;19945;-58
2023/12/18 05:45:44;;;;;;;;;;;;;;;;;;5027453;28;19948;-60
2023/12/18 05:48:09;;;;;;;;;;;;;;;;;;5034003;28;19956;-57
2023/12/18 05:50:35;;;;;;;;;;;;;;;;;;5030381;28;20094;-59
2023/12/18 05:53:01;;;;;;;;;;;;;;;;;;5027543;28;20039;-59
2023/12/18 05:55:27;;;;;;;;;;;;;;;;;;5027319;28;20339;-56
2023/12/18 05:57:53;;;;;;;;;;;;;;;;;;5028530;28;19975;-59
2023/12/18 06:00:19;;;;;;;;;;;;;;;;;;5028476;28;20339;-59
2023/12/18 06:02:45;;;;;;;;;;;;;;;;;;5026428;28;20407;-58
2023/12/18 06:05:12;;;;;;;;;;;;;;;;;;5028451;28;19952;-59
2023/12/18 06:07:37;;;;;;;;;;;;;;;;;;5028628;28;20443;-59
2023/12/18 06:10:03;;;;;;;;;;;;;;;;;;5026071;28;19925;-59
2023/12/18 06:12:29;;;;;;;;;;;;;;;;;;5027342;28;19913;-57
2023/12/18 06:14:55;;;;;;;;;;;;;;;;;;5027482;28;19971;-58
2023/12/18 06:17:21;;;;;;;;;;;;;;;;;;5028190;28;19999;-58
2023/12/18 06:19:47;;;;;;;;;;;;;;;;;;5026197;28;20042;-58
2023/12/18 06:22:13;;;;;;;;;;;;;;;;;;5029023;28;20015;-58
2023/12/18 06:24:39;;;;;;;;;;;;;;;;;;5025690;28;20467;-59
2023/12/18 06:27:05;;;;;;;;;;;;;;;;;;5027967;28;20459;-58
2023/12/18 06:29:31;;;;;;;;;;;;;;;;;;5026359;28;20395;-56
2023/12/18 06:31:57;;;;;;;;;;;;;;;;;;5027042;28;19951;-59
2023/12/18 06:34:23;;;;;;;;;;;;;;;;;;5041011;28;19913;-58
2023/12/18 06:36:49;;;;;;;;;;;;;;;;;;5032811;28;20391;-58
2023/12/18 06:39:15;;;;;;;;;;;;;;;;;;5023465;28;20009;-59
2023/12/18 06:41:41;;;;;;;;;;;;;;;;;;5033491;28;19951;-55
2023/12/18 06:44:07;;;;;;;;;;;;;;;;;;5024760;28;20358;-55
2023/12/18 06:46:34;;;;;;;;;;;;;;;;;;5027576;28;19964;-55
2023/12/18 06:49:00;;;;;;;;;;;;;;;;;;5026929;28;19921;-55
2023/12/18 06:51:26;;;;;;;;;;;;;;;;;;5025695;28;19917;-57
2023/12/18 06:53:52;;;;;;;;;;;;;;;;;;5027165;28;20020;-56
2023/12/18 06:56:18;;;;;;;;;;;;;;;;;;5029236;28;19929;-57
2023/12/18 06:58:44;;;;;;;;;;;;;;;;;;5027478;28;19963;-57
2023/12/18 07:01:10;;;;;;;;;;;;;;;;;;5024021;28;20351;-57
2023/12/18 07:03:36;;;;;;;;;;;;;;;;;;5027315;28;20278;-56
2023/12/18 07:06:02;;;;;;;;;;;;;;;;;;5026995;28;19917;-56
2023/12/18 07:08:29;;;;;;;;;;;;;;;;;;5028009;28;19925;-57
2023/12/18 07:10:56;;;;;;;;;;;;;;;;;;5027075;28;19917;-57
2023/12/18 07:13:22;;;;;;;;;;;;;;;;;;5026502;28;20372;-57
2023/12/18 07:15:48;;;;;;;;;;;;;;;;;;5026588;28;20336;-57
2023/12/18 07:18:14;;;;;;;;;;;;;;;;;;5026493;28;20028;-57
2023/12/18 07:20:40;;;;;;;;;;;;;;;;;;5027682;28;19998;-57
2023/12/18 07:23:06;;;;;;;;;;;;;;;;;;5027900;28;19952;-57
2023/12/18 07:25:32;;;;;;;;;;;;;;;;;;5026553;28;19956;-56
2023/12/18 07:27:57;;;;;;;;;;;;;;;;;;5027460;28;19971;-56
2023/12/18 07:30:23;;;;;;;;;;;;;;;;;;5024384;28;19960;-57
2023/12/18 07:32:49;;;;;;;;;;;;;;;;;;5027817;28;20034;-57
2023/12/18 07:35:15;;;;;;;;;;;;;;;;;;5027609;28;20017;-56
2023/12/18 07:37:41;;;;;;;;;;;;;;;;;;5024848;28;19971;-56
2023/12/18 07:40:07;;;;;;;;;;;;;;;;;;5025191;28;19955;-56
2023/12/18 07:42:33;;;;;;;;;;;;;;;;;;5025621;28;20319;-57
2023/12/18 07:44:59;;;;;;;;;;;;;;;;;;5026774;28;19952;-56
2023/12/18 07:47:25;;;;;;;;;;;;;;;;;;5032032;28;19967;-56
2023/12/18 07:49:51;;;;;;;;;;;;;;;;;;5027593;28;19999;-56
2023/12/18 07:52:17;;;;;;;;;;;;;;;;;;5034303;28;19987;-55
2023/12/18 07:54:43;;;;;;;;;;;;;;;;;;5030288;28;19917;-55
2023/12/18 07:57:09;;;;;;;;;;;;;;;;;;5027837;28;19967;-56
2023/12/18 07:59:39;;;;;;;;;;;;;;;;;;5029402;28;19913;-52
2023/12/18 08:02:05;;;;;;;;;;;;;;;;;;5012129;28;20378;-58
2023/12/18 08:04:31;;;;;;;;;;;;;;;;;;5028833;28;20043;-58
2023/12/18 08:06:57;;;;;;;;;;;;;;;;;;5030198;28;20030;-59
2023/12/18 08:09:23;;;;;;;;;;;;;;;;;;5007271;28;19975;-59
2023/12/18 08:11:49;;;;;;;;;;;;;;;;;;5029738;28;19922;-54
2023/12/18 08:14:15;;;;;;;;;;;;;;;;;;5023758;28;19964;-53
2023/12/18 08:16:41;;;;;;;;;;;;;;;;;;5029728;28;19967;-52
2023/12/18 08:19:08;;;;;;;;;;;;;;;;;;5030059;28;19971;-54
2023/12/18 08:21:34;;;;;;;;;;;;;;;;;;5029213;28;19917;-53
2023/12/18 08:24:01;;;;;;;;;;;;;;;;;;5026082;28;19913;-52
2023/12/18 08:26:27;;;;;;;;;;;;;;;;;;5026612;28;20463;-55
2023/12/18 08:28:53;;;;;;;;;;;;;;;;;;5030319;28;20582;-59
2023/12/18 08:31:19;;;;;;;;;;;;;;;;;;5029881;28;19917;-57
2023/12/18 08:33:45;;;;;;;;;;;;;;;;;;5030942;28;19921;-58
2023/12/18 08:36:11;;;;;;;;;;;;;;;;;;5029101;28;19920;-60
2023/12/18 08:38:37;;;;;;;;;;;;;;;;;;5037623;28;19940;-59
2023/12/18 08:41:03;;;;;;;;;;;;;;;;;;5038993;28;19944;-59
2023/12/18 08:43:29;;;;;;;;;;;;;;;;;;5034228;28;19994;-57
2023/12/18 08:45:55;;;;;;;;;;;;;;;;;;5033859;28;20374;-58
2023/12/18 08:48:21;;;;;;;;;;;;;;;;;;5032679;28;20380;-58
2023/12/18 08:50:47;;;;;;;;;;;;;;;;;;5028630;28;20387;-59
2023/12/18 08:53:13;;;;;;;;;;;;;;;;;;5046748;28;19991;-59
2023/12/18 08:55:39;;;;;;;;;;;;;;;;;;5027286;28;20092;-59
2023/12/18 08:58:05;;;;;;;;;;;;;;;;;;5032558;28;19925;-59
2023/12/18 09:00:31;;;;;;;;;;;;;;;;;;5046114;28;19963;-68
2023/12/18 09:02:58;;;;;;;;;;;;;;;;;;5041276;28;19944;-58
2023/12/18 09:05:24;;;;;;;;;;;;;;;;;;5043905;28;19913;-58
2023/12/18 09:07:50;;;;;;;;;;;;;;;;;;5033967;28;19963;-58
2023/12/18 09:10:17;;;;;;;;;;;;;;;;;;5034421;28;19953;-59
2023/12/18 09:12:44;;;;;;;;;;;;;;;;;;5022341;28;19963;-58
2023/12/18 09:15:10;;;;;;;;;;;;;;;;;;5024045;28;20403;-59
2023/12/18 09:17:36;;;;;;;;;;;;;;;;;;5040444;28;19963;-59
2023/12/18 09:20:02;;;;;;;;;;;;;;;;;;5029188;28;20036;-60
2023/12/18 09:22:28;;;;;;;;;;;;;;;;;;5038650;28;19921;-59
2023/12/18 09:24:54;;;;;;;;;;;;;;;;;;5031102;28;19913;-58
2023/12/18 09:27:20;;;;;;;;;;;;;;;;;;5028463;28;19916;-59
2023/12/18 09:29:46;;;;;;;;;;;;;;;;;;5040220;28;19975;-59
2023/12/18 09:32:12;;;;;;;;;;;;;;;;;;5039276;28;19956;-60
2023/12/18 09:34:39;;;;;;;;;;;;;;;;;;5031440;28;19988;-59
2023/12/18 09:37:05;;;;;;;;;;;;;;;;;;5030293;28;19964;-59
2023/12/18 09:39:31;;;;;;;;;;;;;;;;;;5040918;28;19963;-58
2023/12/18 09:41:57;;;;;;;;;;;;;;;;;;5029033;28;19913;-60
2023/12/18 09:44:23;;;;;;;;;;;;;;;;;;5030017;28;19964;-59
2023/12/18 09:46:49;;;;;;;;;;;;;;;;;;5029191;28;19945;-59
2023/12/18 09:49:16;;;;;;;;;;;;;;;;;;5026850;28;20032;-59
2023/12/18 09:51:42;;;;;;;;;;;;;;;;;;5029550;28;20284;-59
2023/12/18 09:54:08;;;;;;;;;;;;;;;;;;5031920;28;20396;-59
2023/12/18 09:56:34;;;;;;;;;;;;;;;;;;5028618;28;20437;-59
2023/12/18 09:58:59;;;;;;;;;;;;;;;;;;5038181;28;20066;-59
2023/12/18 10:01:26;;;;;;;;;;;;;;;;;;5029798;28;20034;-59
2023/12/18 10:03:52;;;;;;;;;;;;;;;;;;5042746;28;19920;-60
2023/12/18 10:06:18;;;;;;;;;;;;;;;;;;5027834;28;20368;-59
2023/12/18 10:08:44;;;;;;;;;;;;;;;;;;5033448;28;20388;-60
2023/12/18 10:11:10;;;;;;;;;;;;;;;;;;5018664;28;19967;-59
2023/12/18 10:13:35;;;;;;;;;;;;;;;;;;5029304;28;20303;-58
2023/12/18 10:16:02;;;;;;;;;;;;;;;;;;5018571;28;19960;-58
2023/12/18 10:18:27;;;;;;;;;;;;;;;;;;5031027;28;20232;-57
2023/12/18 10:20:54;;;;;;;;;;;;;;;;;;5022512;28;19948;-59
2023/12/18 10:23:20;;;;;;;;;;;;;;;;;;5040763;28;20055;-59
2023/12/18 10:25:46;;;;;;;;;;;;;;;;;;5028933;28;20066;-58
2023/12/18 10:28:12;;;;;;;;;;;;;;;;;;5036177;28;19923;-58
2023/12/18 10:30:38;;;;;;;;;;;;;;;;;;5034940;28;19984;-56
2023/12/18 10:33:05;;;;;;;;;;;;;;;;;;5033843;28;19916;-57
2023/12/18 10:35:31;;;;;;;;;;;;;;;;;;5037526;28;19923;-58
2023/12/18 10:37:57;;;;;;;;;;;;;;;;;;5030727;28;20011;-58
2023/12/18 10:40:25;;;;;;;;;;;;;;;;;;5012287;28;19971;-58
2023/12/18 10:42:51;;;;;;;;;;;;;;;;;;5027986;28;19932;-58
2023/12/18 10:45:17;;;;;;;;;;;;;;;;;;5044125;28;19952;-58
2023/12/18 10:47:43;;;;;;;;;;;;;;;;;;5025598;28;20463;-57
2023/12/18 10:50:10;;;;;;;;;;;;;;;;;;5029087;28;19921;-58
2023/12/18 10:52:38;;;;;;;;;;;;;;;;;;5025606;28;19917;-58
2023/12/18 10:55:04;;;;;;;;;;;;;;;;;;5032148;28;19923;-58
2023/12/18 10:57:30;;;;;;;;;;;;;;;;;;5023091;28;20401;-58
2023/12/18 10:59:57;;;;;;;;;;;;;;;;;;5047584;28;19970;-58
2023/12/18 11:02:23;;;;;;;;;;;;;;;;;;5033171;28;20397;-58
2023/12/18 11:04:49;;;;;;;;;;;;;;;;;;5028900;28;19972;-57
2023/12/18 11:07:15;;;;;;;;;;;;;;;;;;5030172;28;20329;-58
2023/12/18 11:09:41;;;;;;;;;;;;;;;;;;5008873;28;20322;-58
2023/12/18 11:12:08;;;;;;;;;;;;;;;;;;5027508;28;20217;-58
2023/12/18 11:14:34;;;;;;;;;;;;;;;;;;5028466;28;20014;-57
2023/12/18 11:17:00;;;;;;;;;;;;;;;;;;5027523;28;20352;-59
2023/12/18 11:19:26;;;;;;;;;;;;;;;;;;5027686;28;20008;-57
2023/12/18 11:21:52;;;;;;;;;;;;;;;;;;5027442;28;19967;-56
2023/12/18 11:24:18;;;;;;;;;;;;;;;;;;5024810;28;19960;-56
2023/12/18 11:26:45;;;;;;;;;;;;;;;;;;5030744;28;19959;-56
2023/12/18 11:29:11;;;;;;;;;;;;;;;;;;5038679;28;19917;-56
2023/12/18 11:31:37;;;;;;;;;;;;;;;;;;5029290;28;20014;-56
2023/12/18 11:34:04;;;;;;;;;;;;;;;;;;5033521;28;19976;-57
2023/12/18 11:36:30;;;;;;;;;;;;;;;;;;5030716;28;19921;-56
2023/12/18 11:38:57;;;;;;;;;;;;;;;;;;5029102;28;20367;-56
2023/12/18 11:41:23;;;;;;;;;;;;;;;;;;5032913;28;20368;-56
2023/12/18 11:43:49;;;;;;;;;;;;;;;;;;5034172;28;19953;-56
2023/12/18 11:46:15;;;;;;;;;;;;;;;;;;5033489;28;19943;-57
2023/12/18 11:48:41;;;;;;;;;;;;;;;;;;5040979;28;20055;-56
2023/12/18 11:51:07;;;;;;;;;;;;;;;;;;5027476;28;19964;-56
2023/12/18 11:53:33;;;;;;;;;;;;;;;;;;5033338;28;19917;-56
2023/12/18 11:55:59;;;;;;;;;;;;;;;;;;5035396;28;20396;-56
2023/12/18 11:58:25;;;;;;;;;;;;;;;;;;5038649;28;19956;-56
2023/12/18 12:00:51;;;;;;;;;;;;;;;;;;5035000;28;19962;-56
2023/12/18 12:03:17;;;;;;;;;;;;;;;;;;5041065;28;20413;-56
2023/12/18 12:05:43;;;;;;;;;;;;;;;;;;5027987;28;19956;-56
2023/12/18 12:08:09;;;;;;;;;;;;;;;;;;5031090;28;21299;-56
2023/12/18 12:10:35;;;;;;;;;;;;;;;;;;5032016;28;19933;-57
2023/12/18 12:13:01;;;;;;;;;;;;;;;;;;5030849;28;19923;-56
2023/12/18 12:15:28;;;;;;;;;;;;;;;;;;5030976;28;19917;-56
2023/12/18 12:17:54;;;;;;;;;;;;;;;;;;5021797;28;20387;-56
2023/12/18 12:20:19;;;;;;;;;;;;;;;;;;5029879;28;19917;-56
2023/12/18 12:22:45;;;;;;;;;;;;;;;;;;5030348;28;19917;-56
2023/12/18 12:25:11;;;;;;;;;;;;;;;;;;5031783;28;19948;-56
2023/12/18 12:27:37;;;;;;;;;;;;;;;;;;5029657;28;19949;-56
2023/12/18 12:30:03;;;;;;;;;;;;;;;;;;5029985;28;20388;-54
2023/12/18 12:32:29;;;;;;;;;;;;;;;;;;5030550;28;19964;-54
2023/12/18 12:34:55;;;;;;;;;;;;;;;;;;5029408;28;19956;-52
2023/12/18 12:37:21;;;;;;;;;;;;;;;;;;5031124;28;19956;-55
2023/12/18 12:39:47;;;;;;;;;;;;;;;;;;5031254;28;20388;-52
2023/12/18 12:42:13;;;;;;;;;;;;;;;;;;5030616;28;20372;-53
2023/12/18 12:44:39;;;;;;;;;;;;;;;;;;5029245;28;19953;-55
2023/12/18 12:47:05;;;;;;;;;;;;;;;;;;5022319;28;20040;-52
2023/12/18 12:49:31;;;;;;;;;;;;;;;;;;5029989;28;19928;-54
2023/12/18 12:51:56;;;;;;;;;;;;;;;;;;5030948;28;19964;-52
2023/12/18 12:54:22;;;;;;;;;;;;;;;;;;5030749;28;19952;-53
2023/12/18 12:56:48;;;;;;;;;;;;;;;;;;5025143;28;19987;-53
2023/12/18 12:59:14;;;;;;;;;;;;;;;;;;5029499;28;20022;-53
2023/12/18 13:01:40;;;;;;;;;;;;;;;;;;5024823;28;19978;-53
2023/12/18 13:04:07;;;;;;;;;;;;;;;;;;5029457;28;19944;-54
2023/12/18 13:06:33;;;;;;;;;;;;;;;;;;5029162;28;19929;-54
2023/12/18 13:08:59;;;;;;;;;;;;;;;;;;5029627;28;20027;-53
2023/12/18 13:11:26;;;;;;;;;;;;;;;;;;5027046;28;20099;-54
2023/12/18 13:13:52;;;;;;;;;;;;;;;;;;5029850;28;19924;-53
2023/12/18 13:16:18;;;;;;;;;;;;;;;;;;5026549;28;19936;-54
2023/12/18 13:18:44;;;;;;;;;;;;;;;;;;5029166;28;20000;-52
2023/12/18 13:21:10;;;;;;;;;;;;;;;;;;5026792;28;19917;-53
2023/12/18 13:23:37;;;;;;;;;;;;;;;;;;5025768;28;20374;-53
2023/12/18 13:26:03;;;;;;;;;;;;;;;;;;5025336;28;19921;-53
2023/12/18 13:28:28;;;;;;;;;;;;;;;;;;5030333;28;19994;-55
2023/12/18 13:30:54;;;;;;;;;;;;;;;;;;5028864;28;19971;-53
2023/12/18 13:33:20;;;;;;;;;;;;;;;;;;5027842;28;19960;-54
2023/12/18 13:35:46;;;;;;;;;;;;;;;;;;5027386;28;19971;-54
2023/12/18 13:38:12;;;;;;;;;;;;;;;;;;5028376;28;20732;-52
2023/12/18 13:40:38;;;;;;;;;;;;;;;;;;5026290;28;20424;-58
2023/12/18 13:43:04;;;;;;;;;;;;;;;;;;5026568;28;20395;-58
2023/12/18 13:45:30;;;;;;;;;;;;;;;;;;5022033;28;19917;-58
2023/12/18 13:47:56;;;;;;;;;;;;;;;;;;5029539;28;19951;-58
2023/12/18 13:50:22;;;;;;;;;;;;;;;;;;5028565;28;20014;-55
2023/12/18 13:52:48;;;;;;;;;;;;;;;;;;5029360;28;20003;-55
2023/12/18 13:55:14;;;;;;;;;;;;;;;;;;5027321;28;19964;-55
2023/12/18 13:57:40;;;;;;;;;;;;;;;;;;5029424;28;19917;-55
2023/12/18 14:00:08;;;;;;;;;;;;;;;;;;5035104;28;20424;-55
2023/12/18 14:02:34;;;;;;;;;;;;;;;;;;5027211;28;19979;-55
2023/12/18 14:05:02;;;;;;;;;;;;;;;;;;5029413;28;19964;-55
2023/12/18 14:07:28;;;;;;;;;;;;;;;;;;5027275;28;19921;-55
2023/12/18 14:09:54;;;;;;;;;;;;;;;;;;5023815;28;20570;-55
2023/12/18 14:12:20;;;;;;;;;;;;;;;;;;5029883;28;20317;-55
2023/12/18 14:14:46;;;;;;;;;;;;;;;;;;5026332;28;19976;-56
2023/12/18 14:17:12;;;;;;;;;;;;;;;;;;5021778;28;19960;-54
2023/12/18 14:19:38;;;;;;;;;;;;;;;;;;5026754;28;19955;-54
2023/12/18 14:22:04;;;;;;;;;;;;;;;;;;5027946;28;19974;-55
2023/12/18 14:24:30;;;;;;;;;;;;;;;;;;5027007;28;19964;-56
2023/12/18 14:26:56;;;;;;;;;;;;;;;;;;5036757;28;20363;-55
2023/12/18 14:29:22;;;;;;;;;;;;;;;;;;5028623;28;19971;-56
2023/12/18 14:31:48;;;;;;;;;;;;;;;;;;5036057;28;19914;-54
2023/12/18 14:34:14;;;;;;;;;;;;;;;;;;5042193;28;19933;-54
2023/12/18 14:36:40;;;;;;;;;;;;;;;;;;5025928;28;20280;-55
2023/12/18 14:39:06;;;;;;;;;;;;;;;;;;5027496;28;19978;-55
2023/12/18 14:41:32;;;;;;;;;;;;;;;;;;5029164;28;20023;-55
2023/12/18 14:43:58;;;;;;;;;;;;;;;;;;5028326;28;20018;-54
2023/12/18 14:46:24;;;;;;;;;;;;;;;;;;5021097;28;20044;-55
2023/12/18 14:48:50;;;;;;;;;;;;;;;;;;5028067;28;19964;-55
2023/12/18 14:51:16;;;;;;;;;;;;;;;;;;5032260;28;19964;-55
2023/12/18 14:53:42;;;;;;;;;;;;;;;;;;5033698;28;19956;-55
2023/12/18 14:56:08;;;;;;;;;;;;;;;;;;5025479;28;19959;-55
2023/12/18 14:58:34;;;;;;;;;;;;;;;;;;5033338;28;20074;-55
2023/12/18 15:01:00;;;;;;;;;;;;;;;;;;5022766;28;20724;-55
2023/12/18 15:03:26;;;;;;;;;;;;;;;;;;5034317;28;19965;-55
2023/12/18 15:05:53;;;;;;;;;;;;;;;;;;5027460;28;19913;-55
2023/12/18 15:08:18;;;;;;;;;;;;;;;;;;5021255;28;19964;-55
2023/12/18 15:10:44;;;;;;;;;;;;;;;;;;5021535;28;20050;-55
2023/12/18 15:13:12;;;;;;;;;;;;;;;;;;5030829;28;20348;-54
2023/12/18 15:15:38;;;;;;;;;;;;;;;;;;5024932;28;20039;-55
2023/12/18 15:18:04;;;;;;;;;;;;;;;;;;5026379;28;20030;-54
2023/12/18 15:20:30;;;;;;;;;;;;;;;;;;5019299;28;20322;-55
2023/12/18 15:22:56;;;;;;;;;;;;;;;;;;5024424;28;20012;-55
2023/12/18 15:25:22;;;;;;;;;;;;;;;;;;5021366;28;19963;-55
2023/12/18 15:27:48;;;;;;;;;;;;;;;;;;5027339;28;20248;-55
2023/12/18 15:30:14;;;;;;;;;;;;;;;;;;5027400;28;19921;-55
2023/12/18 15:32:41;;;;;;;;;;;;;;;;;;5028137;28;19952;-55
2023/12/18 15:35:08;;;;;;;;;;;;;;;;;;5038350;28;19921;-55
2023/12/18 15:37:34;;;;;;;;;;;;;;;;;;5032235;28;19916;-55
2023/12/18 15:40:00;;;;;;;;;;;;;;;;;;5028381;28;20363;-55
2023/12/18 15:42:27;;;;;;;;;;;;;;;;;;5025276;28;19921;-55
2023/12/18 15:44:53;;;;;;;;;;;;;;;;;;5027167;28;20403;-55
2023/12/18 15:47:20;;;;;;;;;;;;;;;;;;5019418;28;19957;-55
2023/12/18 15:49:46;;;;;;;;;;;;;;;;;;5026198;28;20063;-55
2023/12/18 15:52:12;;;;;;;;;;;;;;;;;;5025334;28;19917;-55
2023/12/18 15:54:38;;;;;;;;;;;;;;;;;;5020287;28;20318;-55
2023/12/18 15:57:04;;;;;;;;;;;;;;;;;;5024901;28;20403;-55
2023/12/18 15:59:30;;;;;;;;;;;;;;;;;;5027244;28;19964;-56
2023/12/18 16:01:56;;;;;;;;;;;;;;;;;;5027277;28;19955;-52
2023/12/18 16:04:23;;;;;;;;;;;;;;;;;;5029248;28;19960;-52
2023/12/18 16:06:49;;;;;;;;;;;;;;;;;;5029843;28;19921;-52
2023/12/18 16:09:15;;;;;;;;;;;;;;;;;;5030477;28;19953;-53
2023/12/18 16:11:41;;;;;;;;;;;;;;;;;;5033577;28;19961;-54
2023/12/18 16:14:07;;;;;;;;;;;;;;;;;;5045834;28;19957;-54
2023/12/18 16:16:33;;;;;;;;;;;;;;;;;;5032589;28;19967;-53
2023/12/18 16:18:59;;;;;;;;;;;;;;;;;;5032144;28;20552;-53
2023/12/18 16:21:25;;;;;;;;;;;;;;;;;;5036302;28;19928;-57
2023/12/18 16:23:51;;;;;;;;;;;;;;;;;;5031034;28;19956;-57
2023/12/18 16:26:17;;;;;;;;;;;;;;;;;;5030695;28;19917;-57
2023/12/18 16:28:43;;;;;;;;;;;;;;;;;;5026978;28;19921;-56
2023/12/18 16:31:08;;;;;;;;;;;;;;;;;;5029766;28;19972;-53
2023/12/18 16:33:35;;;;;;;;;;;;;;;;;;5030043;28;19963;-52
2023/12/18 16:36:03;;;;;;;;;;;;;;;;;;5044781;28;20395;-53
2023/12/18 16:38:29;;;;;;;;;;;;;;;;;;5014975;28;19920;-52
2023/12/18 16:40:55;;;;;;;;;;;;;;;;;;5025524;28;20274;-52
2023/12/18 16:43:21;;;;;;;;;;;;;;;;;;5013025;28;19930;-54